createdAt,value
2024-03-16T00:05:42.366Z,25.14
2024-03-16T00:08:39.157Z,25.08
2024-03-16T00:11:31.707Z,25.01
2024-03-16T00:18:06.365Z,25.03
2024-03-16T00:21:03.107Z,24.97
2024-03-16T00:24:09.235Z,24.97
2024-03-16T00:27:21.770Z,25.00
2024-03-16T00:30:15.600Z,25.08
2024-03-16T00:33:32.125Z,25.01
2024-03-16T00:36:52.426Z,24.94
2024-03-16T00:39:55.617Z,24.92
2024-03-16T00:42:51.351Z,24.92
2024-03-16T00:46:18.865Z,24.95
2024-03-16T00:49:12.250Z,24.92
2024-03-16T00:54:56.641Z,24.91
2024-03-16T00:57:30.644Z,24.92
2024-03-16T01:00:01.443Z,24.97
2024-03-16T01:02:54.300Z,24.95
2024-03-16T01:05:58.070Z,24.90
2024-03-16T01:09:16.591Z,24.92
2024-03-16T01:12:26.995Z,25.01
2024-03-16T01:19:01.977Z,24.97
2024-03-16T01:54:47.465Z,24.87
2024-03-16T01:57:18.009Z,24.91
2024-03-16T02:00:02.014Z,24.95
2024-03-16T02:02:36.715Z,24.98
2024-03-16T02:05:08.892Z,25.00
2024-03-16T02:07:41.884Z,25.01
2024-03-16T02:10:13.135Z,25.04
2024-03-16T02:13:01.089Z,25.08
2024-03-16T02:15:59.965Z,25.07
2024-03-16T02:18:34.033Z,25.07
2024-03-16T02:21:15.032Z,25.17
2024-03-16T02:23:46.393Z,25.15
2024-03-16T02:26:16.879Z,25.15
2024-03-16T02:28:58.055Z,25.20
2024-03-16T02:32:05.622Z,25.15
2024-03-16T02:35:09.489Z,24.95
2024-03-16T02:38:31.552Z,24.80
2024-03-16T02:41:48.679Z,24.83
2024-03-16T02:44:56.996Z,24.87
2024-03-16T02:48:09.208Z,24.97
2024-03-16T02:51:15.063Z,25.12
2024-03-16T02:54:14.676Z,25.04
2024-03-16T02:57:14.402Z,25.11
2024-03-16T03:03:22.829Z,25.06
2024-03-16T03:09:45.889Z,25.07
2024-03-16T03:12:17.828Z,25.17
2024-03-16T03:14:49.664Z,25.17
2024-03-16T03:17:20.171Z,25.21
2024-03-16T03:19:52.315Z,25.24
2024-03-16T03:22:23.190Z,25.17
2024-03-16T03:24:54.998Z,25.20
2024-03-16T03:27:26.585Z,25.14
2024-03-16T03:29:57.741Z,25.15
2024-03-16T03:32:29.274Z,25.10
2024-03-16T03:35:07.274Z,25.14
2024-03-16T03:38:27.455Z,25.15
2024-03-16T03:40:40.744Z,25.17
2024-03-16T03:43:19.993Z,25.11
2024-03-16T03:45:53.558Z,25.07
2024-03-16T03:48:28.076Z,25.08
2024-03-16T03:51:01.476Z,25.04
2024-03-16T03:54:24.087Z,24.98
2024-03-16T03:57:06.131Z,24.94
2024-03-16T04:00:10.047Z,24.95
2024-03-16T04:06:40.406Z,24.80
2024-03-16T04:09:45.177Z,24.97
2024-03-16T04:12:40.588Z,24.97
2024-03-16T04:15:46.478Z,25.03
2024-03-16T04:18:41.786Z,24.83
2024-03-16T04:21:47.348Z,24.61
2024-03-16T04:25:09.887Z,24.46
2024-03-16T04:28:22.998Z,24.43
2024-03-16T04:31:31.053Z,24.47
2024-03-16T04:34:39.722Z,24.50
2024-03-16T04:37:38.636Z,24.59
2024-03-16T04:43:38.791Z,24.80
2024-03-16T04:46:59.671Z,24.76
2024-03-16T04:49:54.763Z,24.83
2024-03-16T04:52:57.895Z,24.97
2024-03-16T04:55:50.852Z,24.94
2024-03-16T04:58:33.938Z,24.90
2024-03-16T05:01:05.667Z,24.88
2024-03-16T05:03:36.244Z,24.79
2024-03-16T05:06:42.482Z,24.74
2024-03-16T05:09:43.734Z,24.64
2024-03-16T05:13:04.076Z,24.64
2024-03-16T05:16:11.837Z,24.66
2024-03-16T05:19:05.453Z,24.69
2024-03-16T05:25:03.554Z,24.69
2024-03-16T05:34:41.572Z,24.67
2024-03-16T05:40:52.786Z,24.60
2024-03-16T05:43:59.483Z,24.66
2024-03-16T05:47:02.642Z,24.69
2024-03-16T05:49:52.511Z,24.61
2024-03-16T05:52:59.569Z,24.50
2024-03-16T05:56:05.466Z,24.32
2024-03-16T05:59:05.817Z,24.40
2024-03-16T06:02:04.605Z,24.41
2024-03-16T06:05:13.140Z,24.50
2024-03-16T06:08:16.672Z,24.46
2024-03-16T06:11:30.402Z,24.46
2024-03-16T06:14:31.606Z,24.44
2024-03-16T06:17:37.225Z,24.43
2024-03-16T06:20:34.990Z,24.53
2024-03-16T06:26:53.086Z,24.49
2024-03-16T06:29:55.505Z,24.46
2024-03-16T06:33:11.961Z,24.52
2024-03-16T06:36:09.586Z,24.55
2024-03-16T06:42:14.564Z,24.55
2024-03-16T06:51:29.481Z,24.41
2024-03-16T06:54:38.838Z,24.44
2024-03-16T06:57:49.363Z,24.35
2024-03-16T07:00:39.625Z,24.37
2024-03-16T07:03:57.589Z,24.32
2024-03-16T07:07:02.570Z,24.26
2024-03-16T07:10:08.870Z,24.26
2024-03-16T07:12:51.549Z,24.25
2024-03-16T07:15:23.713Z,24.35
2024-03-16T07:17:54.577Z,24.41
2024-03-16T07:20:26.288Z,24.43
2024-03-16T07:22:57.567Z,24.46
2024-03-16T07:26:02.913Z,24.44
2024-03-16T07:29:12.905Z,24.40
2024-03-16T07:32:06.214Z,24.28
2024-03-16T07:38:25.395Z,24.28
2024-03-16T07:41:37.279Z,24.35
2024-03-16T07:44:54.405Z,24.41
2024-03-16T07:50:50.502Z,24.44
2024-03-16T07:53:47.105Z,24.44
2024-03-16T08:09:28.751Z,24.55
2024-03-16T08:15:40.114Z,24.56
2024-03-16T08:24:43.770Z,24.50
2024-03-16T08:28:13.997Z,24.50
2024-03-16T08:31:40.760Z,24.56
2024-03-16T08:34:36.389Z,24.49
2024-03-16T08:37:34.625Z,24.53
2024-03-16T08:40:56.788Z,24.53
2024-03-16T08:43:57.627Z,24.44
2024-03-16T08:50:13.418Z,24.50
2024-03-16T08:59:00.504Z,24.55
2024-03-16T09:01:31.701Z,24.53
2024-03-16T09:04:03.745Z,24.50
2024-03-16T09:06:34.451Z,24.49
2024-03-16T09:09:19.824Z,24.50
2024-03-16T09:11:51.503Z,24.37
2024-03-16T09:14:23.151Z,24.26
2024-03-16T09:16:54.199Z,24.23
2024-03-16T09:19:25.809Z,24.20
2024-03-16T09:22:08.851Z,24.20
2024-03-16T09:25:05.393Z,24.25
2024-03-16T09:27:52.982Z,24.28
2024-03-16T09:30:24.634Z,24.22
2024-03-16T09:32:55.669Z,24.30
2024-03-16T09:35:27.152Z,24.30
2024-03-16T09:37:57.873Z,24.35
2024-03-16T09:40:29.012Z,24.37
